createdAt,value
2019-05-11T00:01:55.681Z,2.70
2019-05-11T00:04:25.782Z,2.63
2019-05-11T00:06:54.415Z,2.73
2019-05-11T00:09:26.168Z,2.40
2019-05-11T00:11:57.735Z,2.77
2019-05-11T00:14:26.315Z,2.93
2019-05-11T00:16:56.375Z,2.50
2019-05-11T00:19:24.999Z,2.67
2019-05-11T00:21:53.637Z,2.40
2019-05-11T00:24:22.640Z,2.20
2019-05-11T00:26:52.544Z,2.70
2019-05-11T00:29:21.146Z,2.60
2019-05-11T00:31:49.714Z,2.67
2019-05-11T00:34:19.431Z,1.97
2019-05-11T00:36:47.917Z,2.10
2019-05-11T00:39:16.546Z,2.20
2019-05-11T00:41:45.172Z,2.20
2019-05-11T00:44:13.691Z,1.87
2019-05-11T00:46:42.249Z,2.10
2019-05-11T00:49:12.189Z,2.40
2019-05-11T00:51:40.853Z,2.43
2019-05-11T00:54:09.472Z,2.07
2019-05-11T00:56:38.071Z,2.00
2019-05-11T00:59:20.929Z,2.13
2019-05-11T01:01:37.078Z,2.10
2019-05-11T01:04:05.723Z,2.50
2019-05-11T01:06:36.835Z,3.00
2019-05-11T01:09:07.671Z,2.53
2019-05-11T01:11:36.337Z,2.37
2019-05-11T01:14:05.064Z,2.50
2019-05-11T01:16:33.733Z,2.10
2019-05-11T01:19:02.285Z,2.50
2019-05-11T01:21:30.953Z,2.17
2019-05-11T01:23:59.507Z,2.33
2019-05-11T01:26:28.039Z,2.00
2019-05-11T01:28:56.661Z,2.10
2019-05-11T01:31:25.268Z,1.90
2019-05-11T01:33:53.900Z,2.20
2019-05-11T01:36:22.449Z,2.47
2019-05-11T01:38:52.145Z,2.53
2019-05-11T01:41:23.884Z,2.67
2019-05-11T01:43:52.479Z,2.33
2019-05-11T01:46:27.248Z,2.73
2019-05-11T01:48:55.807Z,3.30
2019-05-11T01:51:25.912Z,2.67
2019-05-11T01:53:54.469Z,2.60
2019-05-11T01:56:23.050Z,3.00
2019-05-11T01:58:52.772Z,3.37
2019-05-11T02:01:21.287Z,3.10
2019-05-11T02:03:52.019Z,3.30
2019-05-11T02:06:20.604Z,3.50
2019-05-11T02:08:49.202Z,3.50
2019-05-11T02:11:18.902Z,3.93
2019-05-11T02:13:47.507Z,3.60
2019-05-11T02:16:16.061Z,4.27
2019-05-11T02:18:45.964Z,3.97
2019-05-11T02:21:14.596Z,4.10
2019-05-11T02:23:43.101Z,4.97
2019-05-11T02:26:11.729Z,5.07
2019-05-11T02:28:41.426Z,5.27
2019-05-11T02:31:10.049Z,4.00
2019-05-11T02:33:38.702Z,3.67
2019-05-11T02:36:08.474Z,3.47
2019-05-11T02:38:37.033Z,4.33
2019-05-11T02:41:05.656Z,4.67
2019-05-11T02:43:34.334Z,5.67
2019-05-11T02:46:02.887Z,4.50
2019-05-11T02:48:31.497Z,3.90
2019-05-11T02:51:04.381Z,2.63
2019-05-11T02:53:33.506Z,2.60
2019-05-11T02:56:06.319Z,2.93
2019-05-11T02:58:35.935Z,2.87
2019-05-11T03:01:04.565Z,2.67
2019-05-11T03:03:33.230Z,3.00
2019-05-11T03:06:03.060Z,3.00
2019-05-11T03:08:31.662Z,3.50
2019-05-11T03:11:00.223Z,2.93
2019-05-11T03:13:28.864Z,2.67
2019-05-11T03:15:58.577Z,2.43
2019-05-11T03:18:27.052Z,2.80
2019-05-11T03:20:55.715Z,2.60
2019-05-11T03:23:24.317Z,2.80
2019-05-11T03:25:52.835Z,2.90
2019-05-11T03:28:21.418Z,3.70
2019-05-11T03:30:50.044Z,2.93
2019-05-11T03:33:18.868Z,3.00
2019-05-11T03:35:47.550Z,3.10
2019-05-11T03:38:16.180Z,2.53
2019-05-11T03:40:44.830Z,2.87
2019-05-11T03:43:16.340Z,3.10
2019-05-11T03:45:47.696Z,3.30
2019-05-11T03:48:19.256Z,2.90
2019-05-11T03:50:47.884Z,3.80
2019-05-11T03:53:16.568Z,4.30
2019-05-11T03:55:45.038Z,4.83
2019-05-11T03:58:13.714Z,2.63
2019-05-11T04:00:43.316Z,2.60
2019-05-11T04:03:11.832Z,2.53
2019-05-11T04:05:40.362Z,3.87
2019-05-11T04:08:11.824Z,4.63
2019-05-11T04:10:40.363Z,5.23
2019-05-11T04:13:08.871Z,4.37
2019-05-11T04:15:37.582Z,3.30
2019-05-11T04:18:06.140Z,2.77
2019-05-11T04:20:34.823Z,3.20
2019-05-11T04:23:03.470Z,3.10
2019-05-11T04:25:32.081Z,3.00
2019-05-11T04:28:00.640Z,2.23
2019-05-11T04:30:29.247Z,2.27
2019-05-11T04:32:57.893Z,1.93
2019-05-11T04:35:27.661Z,2.00
2019-05-11T04:37:56.246Z,1.83
2019-05-11T04:40:24.928Z,2.50
2019-05-11T04:42:55.998Z,1.83
2019-05-11T04:45:23.924Z,1.70
2019-05-11T04:47:52.518Z,1.93
2019-05-11T04:50:21.165Z,1.97
2019-05-11T04:52:49.801Z,1.90
2019-05-11T04:55:18.480Z,2.07
2019-05-11T04:57:47.054Z,1.50
2019-05-11T05:00:16.291Z,2.53
2019-05-11T05:02:44.887Z,2.37
2019-05-11T05:05:19.315Z,2.30
2019-05-11T05:07:50.627Z,1.80
2019-05-11T05:10:21.911Z,3.03
2019-05-11T05:12:51.449Z,1.77
2019-05-11T05:15:20.144Z,2.10
2019-05-11T05:17:48.779Z,2.20
2019-05-11T05:20:17.418Z,2.10
2019-05-11T05:22:46.018Z,1.57
2019-05-11T05:25:14.655Z,2.23
2019-05-11T05:27:43.231Z,1.83
2019-05-11T05:30:13.433Z,2.10
2019-05-11T05:32:42.057Z,1.87
2019-05-11T05:35:10.835Z,1.30
2019-05-11T05:37:39.454Z,1.60
2019-05-11T05:40:08.193Z,1.40
2019-05-11T05:42:36.749Z,1.50
2019-05-11T05:45:07.034Z,1.30
2019-05-11T05:47:35.604Z,1.70
2019-05-11T05:50:06.235Z,1.30
2019-05-11T05:52:34.923Z,1.53
2019-05-11T05:55:04.266Z,1.70
2019-05-11T05:57:32.878Z,2.17
2019-05-11T06:00:01.485Z,1.43
2019-05-11T06:02:30.092Z,1.57
2019-05-11T06:04:58.730Z,2.13
2019-05-11T06:07:28.965Z,1.90
2019-05-11T06:09:57.609Z,1.27
2019-05-11T06:12:26.174Z,1.30
2019-05-11T06:14:54.830Z,1.83
2019-05-11T06:17:23.424Z,1.33
2019-05-11T06:19:55.120Z,1.63
2019-05-11T06:22:23.679Z,1.60
2019-05-11T06:24:52.312Z,1.33
2019-05-11T06:27:20.896Z,1.50
2019-05-11T06:29:55.355Z,1.90
2019-05-11T06:32:23.846Z,1.30
2019-05-11T06:34:53.324Z,1.50
2019-05-11T06:37:21.828Z,1.20
2019-05-11T06:39:50.422Z,1.00
2019-05-11T06:42:23.027Z,1.90
2019-05-11T06:44:51.641Z,1.03
2019-05-11T06:47:20.180Z,0.90
2019-05-11T06:49:49.772Z,1.00
2019-05-11T06:52:18.278Z,1.00
2019-05-11T06:54:49.814Z,1.00
2019-05-11T06:57:22.702Z,0.90
2019-05-11T06:59:51.274Z,0.93
2019-05-11T07:02:19.890Z,1.00
2019-05-11T07:04:49.930Z,0.90
2019-05-11T07:07:18.535Z,0.87
2019-05-11T07:09:47.105Z,1.20
2019-05-11T07:12:15.944Z,1.00
2019-05-11T07:14:44.633Z,0.90
2019-05-11T07:17:13.246Z,0.87
2019-05-11T07:19:41.807Z,0.77
2019-05-11T07:22:11.413Z,0.80
2019-05-11T07:24:39.980Z,0.80
2019-05-11T07:27:08.661Z,1.00
2019-05-11T07:29:37.246Z,1.00
2019-05-11T07:32:16.469Z,0.83
2019-05-11T07:34:38.331Z,0.70
2019-05-11T07:37:08.214Z,0.70
2019-05-11T07:39:38.366Z,0.77
2019-05-11T07:42:07.753Z,0.50
2019-05-11T07:44:41.794Z,1.23
2019-05-11T07:47:10.640Z,0.70
2019-05-11T07:49:39.271Z,0.70
2019-05-11T07:52:11.479Z,0.60
2019-05-11T07:54:40.016Z,0.53
2019-05-11T07:57:11.219Z,0.62
2019-05-11T07:59:39.807Z,0.60
2019-05-11T08:02:09.010Z,0.60
2019-05-11T08:04:38.009Z,0.60
2019-05-11T08:07:07.696Z,0.60
2019-05-11T08:09:38.065Z,0.85
2019-05-11T08:12:08.964Z,0.50
2019-05-11T08:14:55.974Z,0.60
2019-05-11T08:17:08.666Z,0.50
2019-05-11T08:19:38.447Z,0.50
2019-05-11T08:22:08.572Z,0.60
2019-05-11T08:24:37.861Z,0.50
2019-05-11T08:27:08.369Z,0.90
2019-05-11T08:29:38.372Z,0.60
2019-05-11T08:32:08.205Z,0.80
2019-05-11T08:34:39.805Z,0.73
2019-05-11T08:37:08.870Z,0.50
2019-05-11T08:39:40.491Z,0.42
2019-05-11T08:42:10.268Z,0.50
2019-05-11T08:44:38.776Z,0.50
2019-05-11T08:47:10.442Z,0.40
2019-05-11T08:49:40.118Z,0.40
2019-05-11T08:52:08.758Z,0.40
2019-05-11T08:54:38.314Z,0.40
2019-05-11T08:57:09.792Z,0.40
2019-05-11T08:59:38.355Z,0.60
2019-05-11T09:02:08.134Z,0.50
2019-05-11T09:04:42.094Z,0.40
2019-05-11T09:07:10.229Z,0.50
2019-05-11T09:09:38.805Z,0.40
2019-05-11T09:12:08.730Z,0.60
2019-05-11T09:14:38.759Z,0.40
2019-05-11T09:17:11.647Z,0.40
2019-05-11T09:19:40.229Z,0.47
2019-05-11T09:22:11.871Z,0.40
2019-05-11T09:24:40.477Z,0.40
2019-05-11T09:27:10.688Z,0.55
2019-05-11T09:29:39.368Z,0.40
2019-05-11T09:32:08.843Z,0.60
2019-05-11T09:34:39.221Z,0.40
2019-05-11T09:37:08.099Z,0.50
2019-05-11T09:39:38.350Z,0.55
2019-05-11T09:42:07.805Z,0.40
2019-05-11T09:44:38.018Z,0.40
2019-05-11T09:47:08.298Z,0.40
2019-05-11T09:49:47.077Z,0.40
2019-05-11T09:52:07.917Z,0.50
2019-05-11T09:54:38.350Z,0.40
2019-05-11T09:57:08.316Z,0.40
2019-05-11T09:59:38.511Z,0.50
2019-05-11T10:02:07.989Z,0.50
2019-05-11T10:04:38.061Z,0.40
2019-05-11T10:07:08.974Z,0.42
2019-05-11T10:09:38.399Z,0.40
2019-05-11T10:12:09.803Z,0.50
2019-05-11T10:14:39.646Z,0.40
2019-05-11T10:17:08.280Z,0.50
2019-05-11T10:19:36.904Z,0.40
2019-05-11T10:22:08.042Z,0.50
2019-05-11T10:24:38.450Z,0.40
2019-05-11T10:27:08.411Z,0.60
2019-05-11T10:29:38.544Z,0.40
2019-05-11T10:32:07.984Z,0.40
2019-05-11T10:34:38.638Z,0.40
2019-05-11T10:37:08.570Z,0.50
2019-05-11T10:39:38.336Z,0.60
2019-05-11T10:42:08.659Z,0.50
2019-05-11T10:44:38.493Z,0.50
2019-05-11T10:47:08.188Z,0.95
2019-05-11T10:49:38.018Z,0.50
2019-05-11T10:52:09.812Z,0.40
2019-05-11T10:54:39.880Z,0.40
2019-05-11T10:57:08.534Z,0.40
2019-05-11T10:59:39.780Z,0.50
2019-05-11T11:02:08.435Z,0.45
2019-05-11T11:04:38.018Z,1.80
2019-05-11T11:07:08.245Z,0.40
2019-05-11T11:09:38.598Z,0.47
2019-05-11T11:12:08.307Z,0.40
2019-05-11T11:14:37.737Z,0.40
2019-05-11T11:17:08.666Z,0.50
2019-05-11T11:19:38.330Z,0.40
2019-05-11T11:22:30.294Z,0.40
2019-05-11T11:24:37.540Z,0.53
2019-05-11T11:27:08.654Z,0.40
2019-05-11T11:29:38.719Z,0.40
2019-05-11T11:32:08.057Z,0.70
2019-05-11T11:34:38.467Z,0.60
2019-05-11T11:37:08.378Z,0.50
2019-05-11T11:39:38.772Z,0.60
2019-05-11T11:42:08.420Z,0.40
2019-05-11T11:44:37.980Z,0.40
2019-05-11T11:47:09.610Z,0.40
2019-05-11T11:49:38.441Z,0.40
2019-05-11T11:52:08.258Z,0.40
2019-05-11T11:54:38.712Z,0.40
2019-05-11T11:57:07.775Z,0.78
2019-05-11T11:59:38.560Z,0.40
2019-05-11T12:02:10.400Z,0.50
2019-05-11T12:04:39.149Z,0.40
2019-05-11T12:07:08.470Z,0.60
2019-05-11T12:09:37.862Z,0.40
2019-05-11T12:12:08.359Z,0.45
2019-05-11T12:14:38.498Z,0.50
2019-05-11T12:17:10.846Z,1.20
2019-05-11T12:19:38.251Z,0.50
2019-05-11T12:22:09.684Z,0.50
2019-05-11T12:24:38.178Z,0.40
2019-05-11T12:27:07.900Z,0.75
2019-05-11T12:29:38.642Z,0.80
2019-05-11T12:32:08.997Z,0.50
2019-05-11T12:34:37.722Z,0.40
2019-05-11T12:37:08.403Z,0.42
2019-05-11T12:39:38.572Z,0.40
2019-05-11T12:42:08.595Z,0.50
2019-05-11T12:44:38.700Z,0.40
2019-05-11T12:47:21.141Z,0.50
2019-05-11T12:49:41.760Z,0.60
2019-05-11T12:52:10.347Z,0.47
2019-05-11T12:54:38.902Z,0.40
2019-05-11T12:57:08.536Z,0.53
2019-05-11T12:59:38.125Z,0.40
2019-05-11T13:02:08.180Z,0.40
2019-05-11T13:04:38.468Z,0.40
2019-05-11T13:07:08.713Z,0.40
2019-05-11T13:09:38.010Z,0.40
2019-05-11T13:12:08.058Z,0.40
2019-05-11T13:14:39.595Z,0.50
2019-05-11T13:17:09.360Z,0.40
2019-05-11T13:19:38.648Z,0.50
2019-05-11T13:22:07.905Z,0.45
2019-05-11T13:24:38.528Z,0.50
2019-05-11T13:27:08.374Z,0.40
2019-05-11T13:29:37.895Z,0.42
2019-05-11T13:32:07.821Z,1.07
2019-05-11T13:34:38.685Z,0.40
2019-05-11T13:37:08.111Z,0.40
2019-05-11T13:39:37.876Z,0.50
2019-05-11T13:42:08.229Z,0.40
2019-05-11T13:44:38.458Z,1.60
2019-05-11T13:47:08.589Z,0.40
2019-05-11T13:49:37.805Z,0.40
2019-05-11T13:52:08.456Z,0.40
2019-05-11T13:54:37.567Z,0.40
2019-05-11T13:57:07.997Z,0.40
2019-05-11T13:59:38.506Z,0.50
2019-05-11T14:02:10.622Z,0.50
2019-05-11T14:04:39.080Z,0.40
2019-05-11T14:07:08.231Z,0.42
2019-05-11T14:09:39.762Z,0.40
2019-05-11T14:12:11.200Z,0.40
2019-05-11T14:14:39.707Z,0.40
2019-05-11T14:17:09.291Z,0.40
2019-05-11T14:19:38.469Z,0.40
2019-05-11T14:22:08.657Z,0.40
2019-05-11T14:24:37.783Z,0.70
2019-05-11T14:27:08.607Z,0.42
2019-05-11T14:29:38.473Z,0.40
2019-05-11T14:32:08.552Z,0.40
2019-05-11T14:34:38.767Z,0.40
2019-05-11T14:37:08.817Z,0.40
2019-05-11T14:39:40.823Z,0.40
2019-05-11T14:42:09.457Z,0.50
2019-05-11T14:44:38.852Z,0.40
2019-05-11T14:47:08.534Z,0.57
2019-05-11T14:49:37.896Z,0.40
2019-05-11T14:52:08.312Z,0.60
2019-05-11T14:54:38.251Z,0.40
2019-05-11T14:57:10.126Z,0.50
2019-05-11T14:59:40.254Z,0.40
2019-05-11T15:02:13.372Z,0.40
2019-05-11T15:04:42.023Z,0.57
2019-05-11T15:07:14.747Z,0.40
2019-05-11T15:09:43.252Z,0.40
2019-05-11T15:12:11.782Z,0.50
2019-05-11T15:14:40.422Z,0.40
2019-05-11T15:17:08.957Z,0.50
2019-05-11T15:19:38.274Z,0.47
2019-05-11T15:22:08.646Z,0.40
2019-05-11T15:24:38.451Z,0.40
2019-05-11T15:27:08.169Z,0.40
2019-05-11T15:29:37.871Z,0.40
2019-05-11T15:32:08.398Z,0.40
2019-05-11T15:34:37.920Z,0.40
2019-05-11T15:37:08.349Z,0.40
2019-05-11T15:39:37.864Z,0.50
2019-05-11T15:42:11.731Z,0.50
2019-05-11T15:44:38.138Z,0.40
2019-05-11T15:47:07.833Z,0.40
2019-05-11T15:49:37.640Z,0.53
2019-05-11T15:52:08.142Z,0.40
2019-05-11T15:54:38.580Z,0.50
2019-05-11T15:57:08.381Z,0.50
2019-05-11T15:59:38.861Z,0.45
2019-05-11T16:02:08.644Z,0.50
2019-05-11T16:06:21.715Z,0.60
2019-05-11T16:08:50.213Z,0.50
2019-05-11T16:11:18.865Z,0.40
2019-05-11T16:13:48.465Z,0.50
2019-05-11T16:16:17.294Z,0.70
2019-05-11T16:18:50.743Z,0.50
2019-05-11T16:21:19.197Z,0.70
2019-05-11T16:23:48.053Z,1.27
2019-05-11T16:26:17.619Z,0.85
2019-05-11T16:28:47.756Z,0.68
2019-05-11T16:31:22.178Z,0.40
2019-05-11T16:33:50.803Z,0.60
2019-05-11T16:36:19.309Z,0.50
2019-05-11T16:38:48.423Z,0.50
2019-05-11T16:41:17.878Z,0.50
2019-05-11T16:43:47.988Z,0.70
2019-05-11T16:46:17.774Z,0.75
2019-05-11T16:48:49.249Z,0.60
2019-05-11T16:51:17.942Z,1.30
2019-05-11T16:53:48.096Z,1.22
2019-05-11T16:56:16.743Z,1.42
2019-05-11T16:58:45.415Z,1.30
2019-05-11T17:01:14.053Z,1.30
2019-05-11T17:03:42.620Z,1.10
2019-05-11T17:06:11.263Z,1.32
2019-05-11T17:08:39.833Z,1.25
2019-05-11T17:11:08.432Z,1.20
2019-05-11T17:13:39.743Z,1.40
2019-05-11T17:16:08.880Z,2.60
2019-05-11T17:18:37.574Z,2.30
2019-05-11T17:21:07.882Z,2.97
2019-05-11T17:23:39.431Z,1.80
2019-05-11T17:26:08.903Z,2.03
2019-05-11T17:28:38.484Z,1.67
2019-05-11T17:31:07.986Z,2.20
2019-05-11T17:33:38.432Z,2.10
2019-05-11T17:36:08.485Z,3.50
2019-05-11T17:38:38.991Z,2.97
2019-05-11T17:41:08.509Z,3.23
2019-05-11T17:43:38.604Z,2.80
2019-05-11T17:46:08.120Z,3.47
2019-05-11T17:48:38.787Z,3.13
2019-05-11T17:51:20.526Z,3.90
2019-05-11T17:53:37.915Z,4.20
2019-05-11T17:56:06.576Z,4.03
2019-05-11T17:58:37.683Z,3.00
2019-05-11T18:01:05.906Z,2.50
2019-05-11T18:03:34.524Z,2.43
2019-05-11T18:06:03.189Z,2.83
2019-05-11T18:08:31.816Z,2.27
2019-05-11T18:11:00.407Z,1.70
2019-05-11T18:13:28.893Z,4.07
2019-05-11T18:15:57.882Z,2.40
2019-05-11T18:18:28.913Z,1.97
2019-05-11T18:20:59.672Z,2.00
2019-05-11T18:23:28.486Z,1.90
2019-05-11T18:25:57.152Z,1.87
2019-05-11T18:28:25.917Z,1.47
2019-05-11T18:30:54.528Z,1.53
2019-05-11T18:33:23.179Z,1.90
2019-05-11T18:35:54.586Z,2.33
2019-05-11T18:38:23.158Z,2.47
2019-05-11T18:40:51.804Z,4.20
2019-05-11T18:43:20.392Z,3.10
2019-05-11T18:45:48.997Z,2.37
2019-05-11T18:48:18.525Z,2.10
2019-05-11T18:50:49.134Z,2.70
2019-05-11T18:53:18.678Z,2.40
2019-05-11T18:55:48.638Z,2.10
2019-05-11T18:58:18.544Z,1.70
2019-05-11T19:00:48.770Z,1.73
2019-05-11T19:03:19.283Z,1.80
2019-05-11T19:05:48.283Z,1.57
2019-05-11T19:08:19.011Z,1.73
2019-05-11T19:10:48.872Z,1.73
2019-05-11T19:13:17.798Z,1.27
2019-05-11T19:15:48.685Z,1.63
2019-05-11T19:18:16.858Z,1.80
2019-05-11T19:20:49.105Z,1.63
2019-05-11T19:23:15.956Z,1.57
2019-05-11T19:25:44.626Z,1.53
2019-05-11T19:28:13.261Z,1.80
2019-05-11T19:30:41.846Z,1.70
2019-05-11T19:33:13.427Z,2.70
2019-05-11T19:35:42.000Z,3.30
2019-05-11T19:38:10.634Z,3.20
2019-05-11T19:40:39.213Z,4.53
2019-05-11T19:43:08.283Z,3.23
2019-05-11T19:45:38.438Z,3.23
2019-05-11T19:48:08.374Z,2.93
2019-05-11T19:50:40.340Z,2.60
2019-05-11T19:53:08.489Z,2.57
2019-05-11T19:55:37.203Z,2.40
2019-05-11T19:58:05.892Z,3.13
2019-05-11T20:00:34.532Z,2.00
2019-05-11T20:03:03.027Z,3.47
2019-05-11T20:05:31.789Z,2.70
2019-05-11T20:08:00.361Z,2.67
2019-05-11T20:10:29.038Z,2.77
2019-05-11T20:12:58.737Z,2.83
2019-05-11T20:15:27.668Z,3.27
2019-05-11T20:17:58.481Z,2.93
2019-05-11T20:20:28.469Z,3.67
2019-05-11T20:22:59.659Z,2.93
2019-05-11T20:25:28.989Z,3.23
2019-05-11T20:27:58.478Z,3.03
2019-05-11T20:30:27.354Z,2.63
2019-05-11T20:32:55.965Z,3.00
2019-05-11T20:35:24.532Z,3.07
2019-05-11T20:37:53.280Z,7.23
2019-05-11T20:40:21.900Z,7.87
2019-05-11T20:42:50.546Z,7.27
2019-05-11T20:45:19.152Z,6.50
2019-05-11T20:47:48.682Z,4.53
2019-05-11T20:50:18.371Z,6.40
2019-05-11T20:52:48.104Z,4.50
2019-05-11T20:55:18.176Z,3.17
2019-05-11T20:57:48.381Z,3.07
2019-05-11T21:00:18.715Z,3.97
2019-05-11T21:02:48.728Z,3.43
2019-05-11T21:05:18.318Z,3.90
2019-05-11T21:07:47.220Z,4.50
2019-05-11T21:10:19.084Z,4.20
2019-05-11T21:12:47.748Z,3.83
2019-05-11T21:15:17.223Z,4.20
2019-05-11T21:17:48.147Z,4.20
2019-05-11T21:20:18.152Z,3.73
2019-05-11T21:22:48.631Z,4.43
2019-05-11T21:25:18.162Z,4.60
2019-05-11T21:27:48.672Z,4.67
2019-05-11T21:30:18.449Z,5.40
2019-05-11T21:32:47.875Z,4.37
2019-05-11T21:35:18.907Z,5.23
2019-05-11T21:37:48.759Z,5.03
2019-05-11T21:40:17.277Z,4.87
2019-05-11T21:42:47.645Z,4.93
2019-05-11T21:45:18.305Z,4.50
2019-05-11T21:47:49.007Z,3.70
2019-05-11T21:50:19.074Z,3.77
2019-05-11T21:52:48.434Z,4.57
2019-05-11T21:55:17.363Z,4.77
2019-05-11T21:57:49.426Z,4.70
2019-05-11T22:00:18.792Z,4.40
2019-05-11T22:02:48.645Z,3.77
2019-05-11T22:05:20.398Z,4.03
2019-05-11T22:07:49.016Z,3.07
2019-05-11T22:10:17.941Z,2.93
2019-05-11T22:12:48.848Z,3.43
2019-05-11T22:15:16.959Z,2.80
2019-05-11T22:17:47.592Z,2.70
2019-05-11T22:20:18.161Z,3.53
2019-05-11T22:22:47.628Z,2.97
2019-05-11T22:25:18.259Z,2.77
2019-05-11T22:27:48.872Z,3.80
2019-05-11T22:30:18.524Z,3.50
2019-05-11T22:32:47.839Z,3.23
2019-05-11T22:35:18.333Z,3.07
2019-05-11T22:37:48.723Z,3.00
2019-05-11T22:40:17.588Z,3.20
2019-05-11T22:42:46.222Z,3.27
2019-05-11T22:45:15.361Z,3.30
2019-05-11T22:47:43.968Z,3.70
2019-05-11T22:50:12.728Z,4.13
2019-05-11T22:52:41.369Z,2.97
2019-05-11T22:55:12.073Z,3.37
2019-05-11T22:57:40.954Z,3.63
2019-05-11T23:00:10.813Z,3.40
2019-05-11T23:02:39.495Z,3.90
2019-05-11T23:05:09.106Z,3.83
2019-05-11T23:07:41.298Z,4.30
2019-05-11T23:10:10.172Z,3.57
2019-05-11T23:12:39.010Z,4.37
2019-05-11T23:15:14.764Z,4.20
2019-05-11T23:17:43.352Z,3.87
2019-05-11T23:20:12.498Z,4.03
2019-05-11T23:22:57.341Z,4.53
2019-05-11T23:25:20.538Z,5.07
2019-05-11T23:27:49.241Z,4.87
2019-05-11T23:30:19.643Z,5.03
2019-05-11T23:32:49.196Z,4.50
2019-05-11T23:35:18.834Z,5.13
2019-05-11T23:37:49.585Z,4.80
2019-05-11T23:40:18.496Z,4.53
2019-05-11T23:42:50.201Z,4.60
2019-05-11T23:45:19.842Z,4.63
2019-05-11T23:47:49.115Z,4.50
2019-05-11T23:50:18.818Z,5.20
2019-05-11T23:53:03.950Z,4.80
2019-05-11T23:55:19.508Z,5.50
2019-05-11T23:57:49.085Z,4.70
